createdAt,value
2022-12-01T00:01:59.915Z,12
2022-12-01T00:08:10.454Z,5
2022-12-01T00:14:21.112Z,5
2022-12-01T00:20:31.836Z,5
2022-12-01T00:26:42.471Z,4
2022-12-01T00:32:53.136Z,5
2022-12-01T00:39:03.825Z,5
2022-12-01T00:45:14.472Z,5
2022-12-01T00:51:25.126Z,5
2022-12-01T00:57:27.629Z,5
2022-12-01T01:03:38.262Z,5
2022-12-01T01:09:49.232Z,5
2022-12-01T01:15:59.638Z,5
2022-12-01T01:22:10.277Z,5
2022-12-01T01:28:20.914Z,5
2022-12-01T01:34:31.617Z,5
2022-12-01T01:39:44.519Z,5
2022-12-01T01:45:55.231Z,5
2022-12-01T01:52:05.874Z,5
2022-12-01T01:58:08.336Z,5
2022-12-01T02:04:18.984Z,5
2022-12-01T02:10:29.701Z,5
2022-12-01T02:16:40.342Z,5
2022-12-01T02:22:53.869Z,5
2022-12-01T02:29:01.663Z,5
2022-12-01T02:35:12.332Z,5
2022-12-01T02:41:22.965Z,6
2022-12-01T02:47:33.706Z,5
2022-12-01T02:54:50.258Z,5
2022-12-01T03:01:00.937Z,6
2022-12-01T03:07:11.618Z,6
2022-12-01T03:13:22.228Z,6
2022-12-01T03:19:32.913Z,6
2022-12-01T03:25:43.600Z,7
2022-12-01T03:31:54.240Z,7
2022-12-01T03:38:04.897Z,7
2022-12-01T03:44:15.626Z,7
2022-12-01T03:50:26.215Z,7
2022-12-01T03:56:36.894Z,7
2022-12-01T04:02:47.634Z,7
2022-12-01T04:08:00.586Z,8
2022-12-01T04:14:19.348Z,8
2022-12-01T04:19:24.106Z,9
2022-12-01T04:25:34.730Z,9
2022-12-01T04:31:45.485Z,10
2022-12-01T04:37:56.104Z,10
2022-12-01T04:43:00.782Z,10
2022-12-01T04:48:05.505Z,10
2022-12-01T04:54:16.217Z,11
2022-12-01T05:00:18.640Z,10
2022-12-01T05:06:29.312Z,11
2022-12-01T05:11:34.070Z,11
2022-12-01T05:16:38.911Z,11
2022-12-01T05:23:06.287Z,11
2022-12-01T05:29:00.118Z,11
2022-12-01T05:35:10.756Z,11
2022-12-01T05:40:15.470Z,11
2022-12-01T05:45:20.233Z,12
2022-12-01T05:51:30.878Z,11
2022-12-01T05:57:33.371Z,10
2022-12-01T06:03:44.106Z,11
2022-12-01T06:08:48.771Z,11
2022-12-01T06:13:53.457Z,12
2022-12-01T06:20:04.189Z,12
2022-12-01T06:26:14.790Z,14
2022-12-01T06:32:25.477Z,13
2022-12-01T06:37:46.616Z,14
2022-12-01T06:42:51.317Z,15
2022-12-01T06:49:10.160Z,13
2022-12-01T06:54:14.923Z,14
2022-12-01T07:00:25.661Z,14
2022-12-01T07:05:30.305Z,14
2022-12-01T07:11:41.095Z,15
2022-12-01T07:17:51.690Z,15
2022-12-01T07:23:04.529Z,15
2022-12-01T07:29:23.409Z,15
2022-12-01T07:34:28.194Z,14
2022-12-01T07:39:41.023Z,14
2022-12-01T07:45:51.871Z,16
2022-12-01T07:50:56.452Z,15
2022-12-01T07:56:58.913Z,15
2022-12-01T08:03:09.631Z,15
2022-12-01T08:08:14.337Z,14
2022-12-01T08:13:19.034Z,14
2022-12-01T08:18:31.971Z,14
2022-12-01T08:24:42.590Z,14
2022-12-01T08:29:47.538Z,15
2022-12-01T08:35:58.028Z,14
2022-12-01T08:42:08.703Z,14
2022-12-01T08:48:19.352Z,14
2022-12-01T08:53:24.078Z,13
2022-12-01T08:59:26.535Z,14
2022-12-01T09:05:37.187Z,14
2022-12-01T09:10:50.128Z,12
2022-12-01T09:17:00.754Z,13
2022-12-01T09:23:11.433Z,12
2022-12-01T09:29:22.151Z,12
2022-12-01T09:35:32.764Z,11
2022-12-01T09:41:43.455Z,11
2022-12-01T09:47:54.129Z,11
2022-12-01T09:54:04.796Z,11
2022-12-01T10:00:07.244Z,12
2022-12-01T10:06:27.262Z,10
2022-12-01T10:12:28.584Z,10
2022-12-01T10:18:39.273Z,10
2022-12-01T10:24:49.924Z,9
2022-12-01T10:31:00.546Z,9
2022-12-01T10:37:11.254Z,9
2022-12-01T10:43:21.921Z,17
2022-12-01T10:49:32.574Z,11
2022-12-01T10:55:47.821Z,13
2022-12-01T11:01:45.885Z,17
2022-12-01T11:07:56.409Z,11
2022-12-01T11:14:07.046Z,8
2022-12-01T11:20:17.744Z,10
2022-12-01T11:26:28.354Z,9
2022-12-01T11:32:39.026Z,10
2022-12-01T11:38:20.999Z,9
2022-12-01T11:44:04.133Z,9
2022-12-01T11:51:27.426Z,9
2022-12-01T11:57:38.103Z,10
2022-12-01T12:03:40.599Z,11
2022-12-01T12:09:51.820Z,11
2022-12-01T12:14:55.997Z,12
2022-12-01T12:21:06.607Z,13
2022-12-01T12:27:17.278Z,12
2022-12-01T12:33:27.969Z,11
2022-12-01T12:39:38.618Z,14
2022-12-01T12:45:49.307Z,14
2022-12-01T12:52:06.566Z,15
2022-12-01T12:58:11.427Z,15
2022-12-01T13:04:13.098Z,17
2022-12-01T13:10:23.775Z,18
2022-12-01T13:16:34.425Z,20
2022-12-01T13:22:45.072Z,19
2022-12-01T13:28:55.760Z,19
2022-12-01T13:35:06.457Z,20
2022-12-01T13:41:17.106Z,20
2022-12-01T13:47:27.753Z,21
2022-12-01T13:53:38.421Z,19
2022-12-01T13:59:49.313Z,19
2022-12-01T14:05:51.721Z,18
2022-12-01T14:11:04.437Z,18
2022-12-01T14:17:15.172Z,18
2022-12-01T14:23:25.790Z,18
2022-12-01T14:29:36.469Z,20
2022-12-01T14:35:47.128Z,22
2022-12-01T14:41:57.831Z,23
2022-12-01T14:48:08.467Z,21
2022-12-01T14:54:19.108Z,21
2022-12-01T15:01:35.739Z,21
2022-12-01T15:07:46.472Z,19
2022-12-01T15:13:57.069Z,18
2022-12-01T15:20:07.796Z,19
2022-12-01T15:26:18.392Z,19
2022-12-01T15:32:29.061Z,20
2022-12-01T15:38:39.739Z,21
2022-12-01T15:44:53.509Z,21
2022-12-01T15:51:01.052Z,19
2022-12-01T15:57:11.747Z,20
2022-12-01T16:03:14.197Z,21
2022-12-01T16:09:25.097Z,20
2022-12-01T16:15:35.520Z,20
2022-12-01T16:21:46.518Z,20
2022-12-01T16:26:50.881Z,21
2022-12-01T16:33:01.581Z,21
2022-12-01T16:38:14.513Z,20
2022-12-01T16:44:29.209Z,21
2022-12-01T16:50:35.838Z,20
2022-12-01T16:56:46.494Z,21
2022-12-01T17:02:57.292Z,20
2022-12-01T17:08:59.676Z,20
2022-12-01T17:15:10.284Z,22
2022-12-01T17:21:21.025Z,24
2022-12-01T17:27:31.650Z,20
2022-12-01T17:33:42.283Z,25
2022-12-01T17:39:52.931Z,21
2022-12-01T17:46:03.721Z,19
2022-12-01T17:52:14.354Z,21
2022-12-01T17:58:24.949Z,23
2022-12-01T18:05:41.567Z,23
2022-12-01T18:11:52.223Z,22
2022-12-01T18:18:02.898Z,22
2022-12-01T18:24:13.561Z,24
2022-12-01T18:30:24.216Z,23
2022-12-01T18:36:34.897Z,24
2022-12-01T18:42:45.562Z,23
2022-12-01T18:48:56.220Z,24
2022-12-01T18:55:06.868Z,23
2022-12-01T19:01:17.776Z,24
2022-12-01T19:07:36.454Z,23
2022-12-01T19:13:47.083Z,22
2022-12-01T19:19:57.758Z,22
2022-12-01T19:26:08.400Z,23
2022-12-01T19:32:19.051Z,22
2022-12-01T19:38:29.738Z,21
2022-12-01T19:44:40.392Z,19
2022-12-01T19:50:51.035Z,20
2022-12-01T19:57:01.773Z,19
2022-12-01T20:03:12.369Z,20
2022-12-01T20:09:14.848Z,20
2022-12-01T20:15:25.552Z,18
2022-12-01T20:21:36.221Z,19
2022-12-01T20:27:46.868Z,18
2022-12-01T20:32:51.602Z,18
2022-12-01T20:39:02.251Z,19
2022-12-01T20:45:13.022Z,19
2022-12-01T20:51:23.579Z,18
2022-12-01T20:57:34.252Z,16
2022-12-01T21:04:55.132Z,18
2022-12-01T21:11:01.537Z,17
2022-12-01T21:17:12.257Z,17
2022-12-01T21:23:22.865Z,16
2022-12-01T21:29:33.547Z,16
2022-12-01T21:35:44.195Z,16
2022-12-01T21:40:57.076Z,16
2022-12-01T21:47:07.803Z,18
2022-12-01T21:53:18.413Z,17
2022-12-01T21:59:29.128Z,16
2022-12-01T22:05:31.603Z,15
2022-12-01T22:11:42.257Z,17
2022-12-01T22:17:52.887Z,16
2022-12-01T22:24:03.595Z,15
2022-12-01T22:30:14.252Z,16
2022-12-01T22:36:24.874Z,14
2022-12-01T22:42:35.604Z,15
2022-12-01T22:48:46.239Z,17
2022-12-01T22:54:56.910Z,13
2022-12-01T23:01:07.583Z,14
2022-12-01T23:08:24.151Z,16
2022-12-01T23:14:34.810Z,16
2022-12-01T23:20:45.533Z,15
2022-12-01T23:26:56.148Z,14
2022-12-01T23:33:06.822Z,17
2022-12-01T23:39:17.544Z,15
2022-12-01T23:45:28.161Z,13
2022-12-01T23:51:38.838Z,13
2022-12-01T23:57:49.522Z,14
